createdAt,value
2023-04-18T08:41:46.755Z,1026.08
2023-04-18T08:51:56.872Z,1026.17
2023-04-18T09:02:03.961Z,1026.22
2023-04-18T09:12:10.769Z,1026.30
2023-04-18T09:22:17.742Z,1026.12
2023-04-18T09:32:25.555Z,1026.35
2023-04-18T09:42:34.045Z,1026.27
2023-04-18T09:52:42.034Z,1026.22
2023-04-18T10:02:49.329Z,1026.20
2023-04-18T10:12:56.324Z,1026.12
2023-04-18T10:23:02.851Z,1026.13
2023-04-18T10:33:18.322Z,1025.99
2023-04-18T10:43:21.999Z,1025.92
2023-04-18T10:53:29.259Z,1025.95
2023-04-18T11:03:36.655Z,1025.99
2023-04-18T11:13:44.262Z,1025.98
2023-04-18T11:23:51.365Z,1025.97
2023-04-18T11:33:58.762Z,1025.93
2023-04-18T11:44:06.407Z,1025.85
2023-04-18T11:54:13.864Z,1025.78
2023-04-18T12:04:22.389Z,1025.83
2023-04-18T12:14:29.357Z,1025.76
2023-04-18T12:24:35.382Z,1025.76
2023-04-18T12:34:42.806Z,1025.73
2023-04-18T12:44:49.736Z,1025.70
2023-04-18T12:54:56.884Z,1025.72
2023-04-18T13:05:03.868Z,1025.65
2023-04-18T13:15:11.609Z,1025.62
2023-04-18T13:25:18.638Z,1025.54
2023-04-18T13:35:25.897Z,1025.49
2023-04-18T13:45:33.238Z,1025.42
2023-04-18T13:55:40.515Z,1025.31
2023-04-18T14:05:47.912Z,1025.41
2023-04-18T14:15:55.271Z,1025.33
2023-04-18T14:26:02.984Z,1025.25
2023-04-18T14:36:10.232Z,1025.26
2023-04-18T14:46:17.569Z,1025.07
2023-04-18T14:56:24.352Z,1025.13
2023-04-18T15:06:31.894Z,1025.12
2023-04-18T15:16:38.263Z,1025.01
2023-04-18T15:26:45.379Z,1025.00
2023-04-18T15:36:52.231Z,1024.98
2023-04-18T15:46:59.502Z,1025.09
2023-04-18T15:57:06.642Z,1025.10
2023-04-18T16:07:13.744Z,1025.10
2023-04-18T16:17:20.484Z,1025.04
2023-04-18T16:27:27.574Z,1025.08
2023-04-18T16:37:34.914Z,1025.09
2023-04-18T16:47:41.924Z,1025.11
2023-04-18T16:57:48.532Z,1025.06
2023-04-18T17:07:54.871Z,1025.18
2023-04-18T17:18:02.080Z,1025.18
2023-04-18T17:28:09.002Z,1025.26
2023-04-18T17:38:16.109Z,1025.37
2023-04-18T17:48:22.820Z,1025.46
2023-04-18T17:58:30.131Z,1025.54
2023-04-18T18:08:37.199Z,1025.58
2023-04-18T18:18:44.130Z,1025.66
2023-04-18T18:28:51.242Z,1025.76
2023-04-18T18:38:57.944Z,1025.81
2023-04-18T18:49:05.345Z,1025.86
2023-04-18T18:59:12.340Z,1025.94
2023-04-18T19:09:19.216Z,1026.04
2023-04-18T19:19:26.514Z,1026.09
2023-04-18T19:29:33.789Z,1026.06
2023-04-18T19:39:40.430Z,1026.04
2023-04-18T19:49:47.490Z,1026.09
2023-04-18T19:59:54.794Z,1026.09
2023-04-18T20:10:01.494Z,1026.03
2023-04-18T20:20:08.817Z,1025.99
2023-04-18T20:30:15.663Z,1026.05
2023-04-18T20:40:23.079Z,1025.98
2023-04-18T20:50:29.654Z,1025.95
2023-04-18T21:00:36.926Z,1025.97
2023-04-18T21:10:43.922Z,1026.00
2023-04-18T21:20:50.817Z,1026.03
2023-04-18T21:30:58.294Z,1026.06
2023-04-18T21:41:04.932Z,1025.98
2023-04-18T21:51:12.031Z,1025.99
2023-04-18T22:01:18.990Z,1025.98
2023-04-18T22:11:25.990Z,1025.88
2023-04-18T22:21:32.795Z,1025.84
2023-04-18T22:31:40.001Z,1025.77
2023-04-18T22:41:47.271Z,1025.63
2023-04-18T22:51:54.699Z,1025.61
2023-04-18T23:02:01.648Z,1025.48
2023-04-18T23:12:09.457Z,1025.45
2023-04-18T23:22:16.687Z,1025.37
2023-04-18T23:32:23.731Z,1025.42
2023-04-18T23:42:30.341Z,1025.44
2023-04-18T23:52:37.389Z,1025.36
